createdAt,value
2019-01-13T00:01:59.571Z,-0.70
2019-01-13T00:04:30.712Z,-0.70
2019-01-13T00:07:01.413Z,-0.70
2019-01-13T00:09:33.962Z,-0.70
2019-01-13T00:12:05.278Z,-0.70
2019-01-13T00:14:36.036Z,-0.70
2019-01-13T00:17:06.812Z,-0.70
2019-01-13T00:19:37.866Z,-0.70
2019-01-13T00:22:10.581Z,-0.80
2019-01-13T00:24:41.408Z,-0.70
2019-01-13T00:27:12.254Z,-0.80
2019-01-13T00:29:43.247Z,-0.80
2019-01-13T00:32:14.314Z,-0.90
2019-01-13T00:34:46.432Z,-0.90
2019-01-13T00:37:18.325Z,-0.90
2019-01-13T00:39:52.109Z,-0.80
2019-01-13T00:42:23.064Z,-0.90
2019-01-13T00:44:54.009Z,-0.90
2019-01-13T00:47:25.149Z,-0.80
2019-01-13T00:49:56.189Z,-0.80
2019-01-13T00:52:27.332Z,-0.90
2019-01-13T00:54:59.080Z,-0.90
2019-01-13T00:57:30.320Z,-0.80
2019-01-13T01:00:01.450Z,-0.80
2019-01-13T01:02:32.861Z,-0.80
2019-01-13T01:05:03.985Z,-0.80
2019-01-13T01:07:36.716Z,-0.80
2019-01-13T01:10:09.306Z,-0.80
2019-01-13T01:12:40.080Z,-0.80
2019-01-13T01:15:11.625Z,-0.80
2019-01-13T01:17:42.561Z,-0.80
2019-01-13T01:20:14.424Z,-0.80
2019-01-13T01:22:45.351Z,-0.70
2019-01-13T01:25:17.757Z,-0.80
2019-01-13T01:27:48.705Z,-0.70
2019-01-13T01:30:20.560Z,-0.70
2019-01-13T01:32:51.322Z,-0.70
2019-01-13T01:35:22.725Z,-0.70
2019-01-13T01:37:53.653Z,-0.70
2019-01-13T01:40:24.513Z,-0.70
2019-01-13T01:42:55.604Z,-0.70
2019-01-13T01:45:26.749Z,-0.70
2019-01-13T01:47:57.311Z,-0.80
2019-01-13T01:50:28.458Z,-0.80
2019-01-13T01:52:59.621Z,-0.80
2019-01-13T01:55:30.510Z,-0.70
2019-01-13T01:58:01.721Z,-0.70
2019-01-13T02:00:32.874Z,-0.70
2019-01-13T02:03:04.029Z,-0.70
2019-01-13T02:05:35.019Z,-0.70
2019-01-13T02:08:06.192Z,-0.70
2019-01-13T02:10:38.101Z,-0.70
2019-01-13T02:13:09.034Z,-0.70
2019-01-13T02:15:39.888Z,-0.70
2019-01-13T02:18:10.981Z,-0.70
2019-01-13T02:20:42.032Z,-0.70
2019-01-13T02:23:13.101Z,-0.70
2019-01-13T02:25:43.862Z,-0.70
2019-01-13T02:28:15.113Z,-0.70
2019-01-13T02:30:49.276Z,-0.70
2019-01-13T02:33:18.651Z,-0.70
2019-01-13T02:35:50.429Z,-0.70
2019-01-13T02:38:22.085Z,-0.70
2019-01-13T02:40:53.301Z,-0.70
2019-01-13T02:43:24.266Z,-0.70
2019-01-13T02:45:54.900Z,-0.70
2019-01-13T02:48:25.692Z,-0.70
2019-01-13T02:50:56.532Z,-0.70
2019-01-13T02:53:27.521Z,-0.70
2019-01-13T02:55:58.428Z,-0.70
2019-01-13T02:58:29.582Z,-0.70
2019-01-13T03:01:00.433Z,-0.70
2019-01-13T03:03:31.370Z,-0.70
2019-01-13T03:06:02.138Z,-0.70
2019-01-13T03:08:33.272Z,-0.70
2019-01-13T03:11:04.257Z,-0.70
2019-01-13T03:13:35.014Z,-0.70
2019-01-13T03:16:06.030Z,-0.70
2019-01-13T03:18:37.401Z,-0.70
2019-01-13T03:21:09.231Z,-0.70
2019-01-13T03:23:40.037Z,-0.70
2019-01-13T03:26:12.043Z,-0.70
2019-01-13T03:28:43.118Z,-0.70
2019-01-13T03:31:14.240Z,-0.70
2019-01-13T03:33:46.521Z,-0.70
2019-01-13T03:36:20.537Z,-0.80
2019-01-13T03:38:51.895Z,-0.70
2019-01-13T03:41:22.934Z,-0.70
2019-01-13T03:43:54.077Z,-0.70
2019-01-13T03:46:25.027Z,-0.70
2019-01-13T03:48:56.037Z,-0.70
2019-01-13T03:51:27.138Z,-0.70
2019-01-13T03:53:58.201Z,-0.70
2019-01-13T03:56:29.177Z,-0.70
2019-01-13T03:59:00.625Z,-0.70
2019-01-13T04:01:31.587Z,-0.70
2019-01-13T04:04:05.855Z,-0.80
2019-01-13T04:06:36.921Z,-0.80
2019-01-13T04:09:09.250Z,-0.80
2019-01-13T04:11:40.426Z,-0.80
2019-01-13T04:14:11.126Z,-0.80
2019-01-13T04:16:43.086Z,-0.80
2019-01-13T04:19:14.231Z,-0.80
2019-01-13T04:21:44.882Z,-0.80
2019-01-13T04:24:16.900Z,-0.80
2019-01-13T04:26:47.909Z,-0.70
2019-01-13T04:29:18.607Z,-0.80
2019-01-13T04:31:49.395Z,-0.70
2019-01-13T04:34:20.552Z,-0.80
2019-01-13T04:36:51.277Z,-0.70
2019-01-13T04:39:22.484Z,-0.70
2019-01-13T04:41:53.164Z,-0.70
2019-01-13T04:44:23.891Z,-0.70
2019-01-13T04:46:55.164Z,-0.70
2019-01-13T04:49:26.398Z,-0.70
2019-01-13T04:51:56.963Z,-0.70
2019-01-13T04:54:27.730Z,-0.80
2019-01-13T04:56:59.661Z,-0.80
2019-01-13T04:59:30.692Z,-0.80
2019-01-13T05:02:02.002Z,-0.70
2019-01-13T05:04:32.910Z,-0.70
2019-01-13T05:07:03.969Z,-0.70
2019-01-13T05:09:34.930Z,-0.70
2019-01-13T05:12:05.989Z,-0.70
2019-01-13T05:14:37.262Z,-0.70
2019-01-13T05:17:08.583Z,-0.70
2019-01-13T05:19:39.676Z,-0.70
2019-01-13T05:22:10.407Z,-0.70
2019-01-13T05:24:41.423Z,-0.70
2019-01-13T05:27:12.036Z,-0.70
2019-01-13T05:29:42.820Z,-0.70
2019-01-13T05:32:13.583Z,-0.70
2019-01-13T05:34:44.338Z,-0.70
2019-01-13T05:37:15.576Z,-0.70
2019-01-13T05:39:47.328Z,-0.80
2019-01-13T05:42:18.366Z,-0.70
2019-01-13T05:44:49.593Z,-0.70
2019-01-13T05:47:20.413Z,-0.70
2019-01-13T05:49:51.200Z,-0.70
2019-01-13T05:52:22.232Z,-0.70
2019-01-13T05:54:53.266Z,-0.70
2019-01-13T05:57:24.253Z,-0.70
2019-01-13T05:59:54.951Z,-0.70
2019-01-13T06:02:26.400Z,-0.70
2019-01-13T06:04:57.278Z,-0.80
2019-01-13T06:07:28.262Z,-0.80
2019-01-13T06:09:59.269Z,-0.80
2019-01-13T06:12:30.279Z,-0.80
2019-01-13T06:15:01.178Z,-0.80
2019-01-13T06:17:35.700Z,-0.80
2019-01-13T06:20:09.650Z,-0.80
2019-01-13T06:22:40.485Z,-0.80
2019-01-13T06:25:11.319Z,-0.70
2019-01-13T06:27:42.393Z,-0.80
2019-01-13T06:30:16.289Z,-0.80
2019-01-13T06:32:48.044Z,-0.80
2019-01-13T06:35:19.645Z,-0.80
2019-01-13T06:37:50.775Z,-0.80
2019-01-13T06:40:23.194Z,-0.80
2019-01-13T06:42:53.887Z,-0.80
2019-01-13T06:45:26.044Z,-0.80
2019-01-13T06:47:56.855Z,-0.80
2019-01-13T06:50:27.886Z,-0.90
2019-01-13T06:52:59.481Z,-0.90
2019-01-13T06:55:30.539Z,-0.90
2019-01-13T06:58:01.746Z,-0.90
2019-01-13T07:00:32.647Z,-0.90
2019-01-13T07:03:09.205Z,-1.00
2019-01-13T07:05:40.142Z,-1.00
2019-01-13T07:08:11.086Z,-1.00
2019-01-13T07:10:48.414Z,-1.00
2019-01-13T07:13:19.553Z,-1.00
2019-01-13T07:16:10.441Z,-1.10
2019-01-13T07:18:45.924Z,-1.10
2019-01-13T07:21:30.441Z,-1.10
2019-01-13T07:24:06.248Z,-1.20
2019-01-13T07:26:51.927Z,-1.20
2019-01-13T07:29:23.534Z,-1.20
2019-01-13T07:31:54.614Z,-1.20
2019-01-13T07:34:31.757Z,-1.20
2019-01-13T07:37:22.770Z,-1.20
2019-01-13T07:39:54.238Z,-1.10
2019-01-13T07:42:36.835Z,-1.10
2019-01-13T07:45:11.778Z,-1.10
2019-01-13T07:47:47.951Z,-1.10
2019-01-13T07:50:29.753Z,-1.10
2019-01-13T07:53:05.489Z,-1.10
2019-01-13T07:55:46.093Z,-1.10
2019-01-13T07:58:22.549Z,-1.10
2019-01-13T08:00:55.938Z,-1.00
2019-01-13T08:03:28.201Z,-1.00
2019-01-13T08:05:59.768Z,-1.00
2019-01-13T08:08:30.734Z,-1.00
2019-01-13T08:11:02.230Z,-0.90
2019-01-13T08:13:33.562Z,-0.90
2019-01-13T08:16:04.731Z,-0.80
2019-01-13T08:18:36.312Z,-0.80
2019-01-13T08:21:07.719Z,-0.80
2019-01-13T08:23:38.773Z,-0.80
2019-01-13T08:26:09.584Z,-0.80
2019-01-13T08:28:40.956Z,-0.70
2019-01-13T08:31:16.512Z,-0.70
2019-01-13T08:33:47.485Z,-0.70
2019-01-13T08:36:18.598Z,-0.70
2019-01-13T08:38:51.325Z,-0.70
2019-01-13T08:41:22.388Z,-0.70
2019-01-13T08:43:53.439Z,-0.70
2019-01-13T08:46:24.377Z,-0.70
2019-01-13T08:48:55.419Z,-0.60
2019-01-13T08:51:26.727Z,-0.60
2019-01-13T08:53:57.813Z,-0.60
2019-01-13T08:56:28.836Z,-0.50
2019-01-13T08:58:59.806Z,-0.50
2019-01-13T09:01:31.077Z,-0.40
2019-01-13T09:04:02.074Z,-0.40
2019-01-13T09:06:32.983Z,-0.30
2019-01-13T09:09:07.684Z,-0.30
2019-01-13T09:11:38.590Z,-0.30
2019-01-13T09:14:09.637Z,-0.20
2019-01-13T09:16:40.369Z,-0.20
2019-01-13T09:19:11.124Z,-0.20
2019-01-13T09:21:42.121Z,-0.20
2019-01-13T09:24:13.010Z,-0.20
2019-01-13T09:26:43.661Z,-0.20
2019-01-13T09:29:14.351Z,-0.20
2019-01-13T09:31:45.170Z,-0.10
2019-01-13T09:34:15.876Z,-0.10
2019-01-13T09:36:46.920Z,-0.10
2019-01-13T09:39:17.835Z,0.00
2019-01-13T09:41:48.829Z,0.00
2019-01-13T09:44:19.536Z,0.00
2019-01-13T09:46:50.412Z,0.00
2019-01-13T09:49:23.065Z,0.00
2019-01-13T09:51:54.318Z,0.00
2019-01-13T09:54:25.357Z,0.00
2019-01-13T09:56:56.350Z,-0.10
2019-01-13T09:59:27.115Z,-0.10
2019-01-13T10:01:58.174Z,-0.10
2019-01-13T10:04:29.435Z,-0.10
2019-01-13T10:07:00.337Z,-0.10
2019-01-13T10:09:31.276Z,0.00
2019-01-13T10:12:02.317Z,0.00
2019-01-13T10:14:32.974Z,-0.10
2019-01-13T10:17:04.955Z,-0.10
2019-01-13T10:19:36.121Z,-0.10
2019-01-13T10:22:06.721Z,-0.10
2019-01-13T10:24:37.752Z,-0.10
2019-01-13T10:27:10.365Z,-0.10
2019-01-13T10:29:41.503Z,-0.10
2019-01-13T10:32:12.641Z,-0.10
2019-01-13T10:34:43.784Z,-0.10
2019-01-13T10:37:14.930Z,-0.20
2019-01-13T10:39:46.117Z,-0.20
2019-01-13T10:42:17.081Z,-0.20
2019-01-13T10:44:47.894Z,-0.10
2019-01-13T10:47:18.684Z,-0.10
2019-01-13T10:49:49.722Z,-0.10
2019-01-13T10:52:20.821Z,-0.10
2019-01-13T10:54:51.953Z,-0.10
2019-01-13T10:57:22.717Z,-0.10
2019-01-13T10:59:53.793Z,-0.10
2019-01-13T11:02:24.614Z,-0.10
2019-01-13T11:04:55.774Z,-0.10
2019-01-13T11:07:27.243Z,-0.10
2019-01-13T11:09:58.104Z,-0.10
2019-01-13T11:12:29.047Z,-0.10
2019-01-13T11:15:00.279Z,-0.10
2019-01-13T11:17:31.393Z,-0.10
2019-01-13T11:20:03.769Z,-0.10
2019-01-13T11:22:35.497Z,-0.10
2019-01-13T11:25:06.985Z,-0.10
2019-01-13T11:27:37.720Z,-0.10
2019-01-13T11:30:11.967Z,-0.10
2019-01-13T11:32:43.715Z,-0.10
2019-01-13T11:35:14.769Z,-0.10
2019-01-13T11:37:45.611Z,-0.10
2019-01-13T11:40:19.772Z,-0.10
2019-01-13T11:42:50.890Z,-0.10
2019-01-13T11:45:21.577Z,-0.10
2019-01-13T11:47:52.537Z,-0.10
2019-01-13T11:50:24.057Z,-0.10
2019-01-13T11:52:55.023Z,-0.10
2019-01-13T11:55:26.093Z,0.00
2019-01-13T11:57:57.019Z,0.00
2019-01-13T12:00:36.457Z,0.00
2019-01-13T12:03:07.544Z,0.00
2019-01-13T12:05:39.285Z,0.00
2019-01-13T12:08:10.373Z,0.00
2019-01-13T12:10:42.152Z,0.00
2019-01-13T12:13:13.240Z,0.00
2019-01-13T12:15:43.884Z,0.00
2019-01-13T12:18:14.935Z,0.00
2019-01-13T12:20:46.146Z,0.00
2019-01-13T12:23:17.279Z,0.00
2019-01-13T12:25:52.555Z,0.00
2019-01-13T12:28:20.521Z,0.00
2019-01-13T12:30:51.502Z,0.00
2019-01-13T12:33:24.615Z,0.00
2019-01-13T12:35:54.544Z,0.00
2019-01-13T12:38:25.332Z,-0.10
2019-01-13T12:40:56.488Z,-0.10
2019-01-13T12:43:27.560Z,-0.10
2019-01-13T12:45:58.437Z,-0.10
2019-01-13T12:48:29.280Z,-0.10
2019-01-13T12:51:00.472Z,-0.10
2019-01-13T12:53:31.307Z,-0.10
2019-01-13T12:56:02.092Z,-0.10
2019-01-13T12:58:33.130Z,-0.10
2019-01-13T13:01:04.078Z,0.00
2019-01-13T13:03:34.685Z,0.00
2019-01-13T13:06:05.999Z,0.00
2019-01-13T13:08:36.870Z,0.00
2019-01-13T13:11:07.930Z,-0.10
2019-01-13T13:13:38.739Z,-0.10
2019-01-13T13:16:10.020Z,-0.10
2019-01-13T13:18:41.869Z,0.00
2019-01-13T13:21:12.664Z,0.00
2019-01-13T13:23:43.242Z,-0.10
2019-01-13T13:26:14.184Z,0.00
2019-01-13T13:28:45.506Z,0.00
2019-01-13T13:31:16.882Z,0.00
2019-01-13T13:33:48.147Z,-0.10
2019-01-13T13:36:18.767Z,-0.10
2019-01-13T13:38:49.534Z,-0.10
2019-01-13T13:41:22.277Z,-0.10
2019-01-13T13:43:53.254Z,-0.10
2019-01-13T13:46:24.483Z,-0.10
2019-01-13T13:48:57.225Z,-0.10
2019-01-13T13:51:28.408Z,-0.10
2019-01-13T13:53:59.536Z,-0.10
2019-01-13T13:56:30.384Z,-0.10
2019-01-13T13:59:01.081Z,-0.10
2019-01-13T14:01:32.407Z,-0.10
2019-01-13T14:04:03.494Z,-0.10
2019-01-13T14:06:34.636Z,-0.10
2019-01-13T14:09:08.536Z,-0.10
2019-01-13T14:11:39.480Z,-0.10
2019-01-13T14:14:10.315Z,-0.10
2019-01-13T14:16:41.408Z,-0.10
2019-01-13T14:19:12.063Z,-0.10
2019-01-13T14:21:42.942Z,-0.10
2019-01-13T14:24:13.972Z,-0.10
2019-01-13T14:26:44.695Z,-0.10
2019-01-13T14:29:15.449Z,-0.10
2019-01-13T14:31:46.785Z,-0.10
2019-01-13T14:34:17.626Z,-0.10
2019-01-13T14:36:48.267Z,-0.10
2019-01-13T14:39:19.299Z,-0.10
2019-01-13T14:41:49.951Z,-0.10
2019-01-13T14:44:21.194Z,-0.10
2019-01-13T14:46:52.412Z,-0.10
2019-01-13T14:49:24.777Z,-0.10
2019-01-13T14:51:55.649Z,-0.10
2019-01-13T14:54:27.410Z,-0.10
2019-01-13T14:56:58.064Z,-0.10
2019-01-13T14:59:30.806Z,-0.10
2019-01-13T15:02:01.576Z,-0.10
2019-01-13T15:04:32.823Z,-0.10
2019-01-13T15:07:03.557Z,-0.10
2019-01-13T15:09:34.429Z,-0.10
2019-01-13T15:12:05.748Z,-0.10
2019-01-13T15:14:36.303Z,0.00
2019-01-13T15:17:07.473Z,0.00
2019-01-13T15:19:38.449Z,0.00
2019-01-13T15:22:09.649Z,0.00
2019-01-13T15:24:40.260Z,0.00
2019-01-13T15:27:11.142Z,0.10
2019-01-13T15:29:41.991Z,0.00
2019-01-13T15:32:15.846Z,0.10
2019-01-13T15:34:46.867Z,0.00
2019-01-13T15:37:17.566Z,0.00
2019-01-13T15:39:48.593Z,0.00
2019-01-13T15:42:19.220Z,0.00
2019-01-13T15:44:49.881Z,0.00
2019-01-13T15:47:20.653Z,0.00
2019-01-13T15:49:51.548Z,0.00
2019-01-13T15:52:22.378Z,0.00
2019-01-13T15:54:53.757Z,0.00
2019-01-13T15:57:25.374Z,0.00
2019-01-13T15:59:56.284Z,0.00
2019-01-13T16:02:26.882Z,0.00
2019-01-13T16:04:57.770Z,0.10
2019-01-13T16:07:28.730Z,0.00
2019-01-13T16:09:59.570Z,0.00
2019-01-13T16:12:30.656Z,0.00
2019-01-13T16:15:01.828Z,0.00
2019-01-13T16:17:33.073Z,0.00
2019-01-13T16:20:04.865Z,0.00
2019-01-13T16:22:35.839Z,0.00
2019-01-13T16:25:07.070Z,0.00
2019-01-13T16:27:37.689Z,0.00
2019-01-13T16:30:17.757Z,0.00
2019-01-13T16:32:49.005Z,0.00
2019-01-13T16:35:20.216Z,0.00
2019-01-13T16:37:54.020Z,0.00
2019-01-13T16:40:26.110Z,0.00
2019-01-13T16:42:56.753Z,0.00
2019-01-13T16:45:27.797Z,0.00
2019-01-13T16:47:59.420Z,0.00
2019-01-13T16:50:31.417Z,0.00
2019-01-13T16:53:02.008Z,0.00
2019-01-13T16:55:32.856Z,0.00
2019-01-13T16:58:04.191Z,0.00
2019-01-13T17:00:35.285Z,0.00
2019-01-13T17:03:06.412Z,0.00
2019-01-13T17:05:37.690Z,0.00
2019-01-13T17:08:08.701Z,0.00
2019-01-13T17:10:39.501Z,0.00
2019-01-13T17:13:10.885Z,0.00
2019-01-13T17:15:41.849Z,0.00
2019-01-13T17:18:12.689Z,0.00
2019-01-13T17:20:43.457Z,0.00
2019-01-13T17:23:15.511Z,0.00
2019-01-13T17:25:46.373Z,0.00
2019-01-13T17:28:17.361Z,0.00
2019-01-13T17:30:48.150Z,0.00
2019-01-13T17:33:18.849Z,0.00
2019-01-13T17:35:49.957Z,0.00
2019-01-13T17:38:20.994Z,0.00
2019-01-13T17:40:53.825Z,0.00
2019-01-13T17:43:24.660Z,0.10
2019-01-13T17:45:55.629Z,0.00
2019-01-13T17:48:26.548Z,0.00
2019-01-13T17:50:57.117Z,0.00
2019-01-13T17:53:28.402Z,0.00
2019-01-13T17:55:59.072Z,0.00
2019-01-13T17:58:29.954Z,0.00
2019-01-13T18:01:27.136Z,0.00
2019-01-13T18:03:57.752Z,0.00
2019-01-13T18:06:28.949Z,0.00
2019-01-13T18:09:00.133Z,0.00
2019-01-13T18:11:31.060Z,0.00
2019-01-13T18:14:01.915Z,0.00
2019-01-13T18:16:33.389Z,0.10
2019-01-13T18:19:04.036Z,0.00
2019-01-13T18:21:34.827Z,0.00
2019-01-13T18:24:05.749Z,0.00
2019-01-13T18:26:36.900Z,0.00
2019-01-13T18:29:07.937Z,0.00
2019-01-13T18:31:38.921Z,0.00
2019-01-13T18:34:09.733Z,0.00
2019-01-13T18:36:40.658Z,0.00
2019-01-13T18:39:11.728Z,0.00
2019-01-13T18:41:42.992Z,0.10
2019-01-13T18:44:14.044Z,0.00
2019-01-13T18:46:44.692Z,0.00
2019-01-13T18:49:17.770Z,0.00
2019-01-13T18:51:48.554Z,0.00
2019-01-13T18:54:19.532Z,0.00
2019-01-13T18:56:50.498Z,0.00
2019-01-13T18:59:21.525Z,0.00
2019-01-13T19:01:52.413Z,0.00
2019-01-13T19:04:23.433Z,0.00
2019-01-13T19:06:54.672Z,0.00
2019-01-13T19:09:26.312Z,0.00
2019-01-13T19:11:57.376Z,0.00
2019-01-13T19:14:45.077Z,0.00
2019-01-13T19:17:18.694Z,0.00
2019-01-13T19:19:57.527Z,0.00
2019-01-13T19:22:31.275Z,0.00
2019-01-13T19:25:08.812Z,0.00
2019-01-13T19:27:39.594Z,-0.10
2019-01-13T19:30:13.139Z,-0.10
2019-01-13T19:32:44.241Z,-0.10
2019-01-13T19:35:15.693Z,-0.10
2019-01-13T19:37:46.650Z,-0.10
2019-01-13T19:40:18.012Z,-0.10
2019-01-13T19:42:49.361Z,-0.10
2019-01-13T19:45:21.756Z,-0.10
2019-01-13T19:47:53.561Z,-0.10
2019-01-13T19:50:26.192Z,-0.10
2019-01-13T19:52:57.611Z,-0.10
2019-01-13T19:55:28.650Z,-0.10
2019-01-13T19:57:59.395Z,-0.10
2019-01-13T20:00:35.372Z,-0.10
2019-01-13T20:03:07.536Z,-0.10
2019-01-13T20:05:38.245Z,-0.10
2019-01-13T20:08:08.924Z,-0.10
2019-01-13T20:10:40.076Z,-0.10
2019-01-13T20:13:11.453Z,-0.10
2019-01-13T20:15:42.751Z,-0.10
2019-01-13T20:18:13.861Z,-0.10
2019-01-13T20:20:44.697Z,-0.10
2019-01-13T20:23:15.587Z,-0.10
2019-01-13T20:25:46.612Z,-0.10
2019-01-13T20:28:18.597Z,-0.10
2019-01-13T20:30:49.769Z,0.00
2019-01-13T20:33:20.784Z,0.00
2019-01-13T20:35:51.722Z,0.00
2019-01-13T20:38:22.416Z,0.00
2019-01-13T20:40:53.436Z,0.00
2019-01-13T20:43:24.356Z,0.00
2019-01-13T20:45:55.342Z,0.00
2019-01-13T20:48:26.238Z,0.00
2019-01-13T20:50:58.823Z,0.00
2019-01-13T20:53:29.561Z,0.00
2019-01-13T20:56:00.401Z,0.00
2019-01-13T20:58:31.643Z,0.00
2019-01-13T21:01:02.468Z,0.00
2019-01-13T21:03:33.512Z,0.00
2019-01-13T21:06:04.470Z,0.00
2019-01-13T21:08:35.727Z,0.10
2019-01-13T21:11:08.396Z,0.10
2019-01-13T21:13:39.760Z,0.00
2019-01-13T21:16:10.889Z,0.00
2019-01-13T21:18:41.616Z,0.10
2019-01-13T21:21:12.723Z,0.10
2019-01-13T21:23:44.016Z,0.10
2019-01-13T21:26:14.756Z,0.10
2019-01-13T21:28:46.717Z,0.10
2019-01-13T21:31:18.071Z,0.10
2019-01-13T21:33:50.033Z,0.00
2019-01-13T21:36:20.856Z,0.00
2019-01-13T21:38:51.896Z,0.00
2019-01-13T21:41:23.066Z,0.00
2019-01-13T21:43:54.121Z,0.00
2019-01-13T21:46:25.652Z,0.00
2019-01-13T21:48:57.873Z,0.00
2019-01-13T21:51:29.089Z,-0.10
2019-01-13T21:54:00.098Z,-0.10
2019-01-13T21:56:31.133Z,-0.10
2019-01-13T21:59:02.276Z,-0.10
2019-01-13T22:01:35.622Z,-0.10
2019-01-13T22:04:06.440Z,-0.20
2019-01-13T22:06:37.592Z,-0.20
2019-01-13T22:09:12.212Z,-0.20
2019-01-13T22:11:43.001Z,-0.20
2019-01-13T22:14:13.853Z,-0.20
2019-01-13T22:16:45.105Z,-0.30
2019-01-13T22:19:15.836Z,-0.30
2019-01-13T22:21:46.917Z,-0.30
2019-01-13T22:24:17.481Z,-0.40
2019-01-13T22:26:48.450Z,-0.40
2019-01-13T22:29:19.389Z,-0.40
2019-01-13T22:31:50.879Z,-0.40
2019-01-13T22:34:21.979Z,-0.50
2019-01-13T22:36:53.137Z,-0.50
2019-01-13T22:39:24.241Z,-0.50
2019-01-13T22:41:55.108Z,-0.50
2019-01-13T22:44:25.943Z,-0.50
2019-01-13T22:46:56.657Z,-0.50
2019-01-13T22:49:27.381Z,-0.60
2019-01-13T22:51:58.326Z,-0.60
2019-01-13T22:54:29.602Z,-0.60
2019-01-13T22:57:00.535Z,-0.60
2019-01-13T22:59:31.642Z,-0.60
2019-01-13T23:02:02.809Z,-0.70
2019-01-13T23:04:33.589Z,-0.70
2019-01-13T23:07:04.828Z,-0.70
2019-01-13T23:09:35.854Z,-0.70
2019-01-13T23:12:06.475Z,-0.70
2019-01-13T23:14:37.413Z,-0.70
2019-01-13T23:17:08.345Z,-0.70
2019-01-13T23:19:39.205Z,-0.80
2019-01-13T23:22:10.193Z,-0.80
2019-01-13T23:24:41.385Z,-0.80
2019-01-13T23:27:12.571Z,-0.80
2019-01-13T23:29:43.324Z,-0.80
2019-01-13T23:32:14.153Z,-0.90
2019-01-13T23:34:45.545Z,-0.90
2019-01-13T23:37:16.713Z,-0.90
2019-01-13T23:39:47.441Z,-0.90
2019-01-13T23:42:18.721Z,-0.90
2019-01-13T23:44:49.928Z,-0.90
2019-01-13T23:47:20.915Z,-1.00
2019-01-13T23:49:51.742Z,-1.00
2019-01-13T23:52:22.884Z,-1.00
2019-01-13T23:54:54.242Z,-1.10
2019-01-13T23:57:26.544Z,-1.10
2019-01-13T23:59:57.457Z,-1.10
